Brookline, Massachusetts
Current Conditions -  °F | °C
As of 11:54 AM on Thursday 23 Oct 2014 (Local Time) from KBOS Reporting Station
Overcast Overcast  
Wind Chill: 53°   Ceiling: 800
Heat Index: 53°   Visibility: 8mi
Dew Point: 53°   Wind: 26mph
Humidity: 100%   Direction: 20°NNE
Pressure: 29.62"   Gusts: 37mph
Location:  42.33°N, 71.12°W
Report Text: KBOS 231554Z 02023G32KT 8SM OVC008 12/12 A2962 RMK AO2 PK WND 02033/1514 DZE14 SLP029 P0000 T01170117
Loading
Personal Weather Stations






























Interactive Weather Map
Tropical Storm Tracking
New forecast layout! Learn more

10-Day Weather Forecast

Advertisements
Track Severe Weather on mobile